<?xml version="1.0" encoding="UTF-8" standalone="no" ?>
<gpx xmlns="http://www.topografix.com/GPX/1/1" xmlns:xsi="http://www.w3.org/2001/XMLSchema-instance" xsi:schemaLocation="http://www.topografix.com/GPX/1/1 http://www.topografix.com/GPX/1/1/gpx.xsd" version="1.1" creator="VisuGPX - https://www.visugpx.com">
  <metadata>
    <name>Cret du Rey</name>
    <desc><![CDATA[Cret du Rey - Beaufortain.]]></desc>
  </metadata>
  <trk>
    <name><![CDATA[2016-07-05 09:48]]></name>
    <desc><![CDATA[<p>Heure de départ: 07/05/2016 09:48</p><p>Heure d'arrivée: 07/05/2016 13:49</p><p>Distance: 9 km (04:00)</p><p>Temps déplacement: 03:10</p><p>Vitesse moyenne: 2,25 km/h</p><p>Vitesse moyenne mouv.: 2,84 km/h</p><p>Vitesse Max.: 19,51km/h</p><p>Altitude minimale: 1696 m</p><p>Altitude maximale: 2561 m</p><p>Vitesse de montée: 413,1 m/h</p><p>Vitesse de descente: -469,3 m/h</p><p>Gain d'altitude: 865 m</p><p>Perte d'altitude: -885 m</p><p>Temps de montée: 02:05</p><p>Temps de descente: 01:53</p><hr align="center" width="480" style="height: 2px; width: 517px"/>]]></desc>
    <trkseg>
      <trkpt lat="45.57461" lon="6.60024">
        <ele>1716.53</ele>
        <time>2016-07-05T07:48:34Z</time>
      </trkpt>
      <trkpt lat="45.57507" lon="6.60038">
        <ele>1764.53</ele>
        <time>2016-07-05T07:48:35Z</time>
      </trkpt>
      <trkpt lat="45.57549" lon="6.60008">
        <ele>1709.33</ele>
        <time>2016-07-05T07:48:36Z</time>
      </trkpt>
      <trkpt lat="45.57542" lon="6.59984">
        <ele>1723.74</ele>
        <time>2016-07-05T07:48:57Z</time>
      </trkpt>
      <trkpt lat="45.57553" lon="6.59961">
        <ele>1719.57</ele>
        <time>2016-07-05T07:49:17Z</time>
      </trkpt>
      <trkpt lat="45.57567" lon="6.59942">
        <ele>1719.45</ele>
        <time>2016-07-05T07:49:35Z</time>
      </trkpt>
      <trkpt lat="45.57579" lon="6.59922">
        <ele>1723.46</ele>
        <time>2016-07-05T07:49:56Z</time>
      </trkpt>
      <trkpt lat="45.57594" lon="6.59908">
        <ele>1725.54</ele>
        <time>2016-07-05T07:50:12Z</time>
      </trkpt>
      <trkpt lat="45.57605" lon="6.59885">
        <ele>1728.32</ele>
        <time>2016-07-05T07:50:28Z</time>
      </trkpt>
      <trkpt lat="45.57613" lon="6.5986">
        <ele>1734.28</ele>
        <time>2016-07-05T07:50:52Z</time>
      </trkpt>
      <trkpt lat="45.57626" lon="6.59839">
        <ele>1735.4</ele>
        <time>2016-07-05T07:51:12Z</time>
      </trkpt>
      <trkpt lat="45.57616" lon="6.59817">
        <ele>1740.24</ele>
        <time>2016-07-05T07:51:31Z</time>
      </trkpt>
      <trkpt lat="45.57609" lon="6.59792">
        <ele>1741.49</ele>
        <time>2016-07-05T07:51:45Z</time>
      </trkpt>
      <trkpt lat="45.57627" lon="6.59795">
        <ele>1747.73</ele>
        <time>2016-07-05T07:52:56Z</time>
      </trkpt>
      <trkpt lat="45.57645" lon="6.59788">
        <ele>1754.37</ele>
        <time>2016-07-05T07:53:10Z</time>
      </trkpt>
      <trkpt lat="45.57664" lon="6.59785">
        <ele>1760.48</ele>
        <time>2016-07-05T07:53:31Z</time>
      </trkpt>
      <trkpt lat="45.5768" lon="6.59774">
        <ele>1761.49</ele>
        <time>2016-07-05T07:53:53Z</time>
      </trkpt>
      <trkpt lat="45.57698" lon="6.59766">
        <ele>1765.53</ele>
        <time>2016-07-05T07:54:12Z</time>
      </trkpt>
      <trkpt lat="45.57712" lon="6.59783">
        <ele>1767.77</ele>
        <time>2016-07-05T07:54:32Z</time>
      </trkpt>
      <trkpt lat="45.57722" lon="6.59805">
        <ele>1765.53</ele>
        <time>2016-07-05T07:54:47Z</time>
      </trkpt>
      <trkpt lat="45.57737" lon="6.59818">
        <ele>1773.49</ele>
        <time>2016-07-05T07:55:06Z</time>
      </trkpt>
      <trkpt lat="45.57744" lon="6.59794">
        <ele>1773.54</ele>
        <time>2016-07-05T07:55:22Z</time>
      </trkpt>
      <trkpt lat="45.57744" lon="6.59768">
        <ele>1774.36</ele>
        <time>2016-07-05T07:55:39Z</time>
      </trkpt>
      <trkpt lat="45.57763" lon="6.59767">
        <ele>1781.93</ele>
        <time>2016-07-05T07:55:59Z</time>
      </trkpt>
      <trkpt lat="45.57772" lon="6.59791">
        <ele>1780.49</ele>
        <time>2016-07-05T07:58:12Z</time>
      </trkpt>
      <trkpt lat="45.5779" lon="6.59802">
        <ele>1785.28</ele>
        <time>2016-07-05T07:58:40Z</time>
      </trkpt>
      <trkpt lat="45.57806" lon="6.59787">
        <ele>1789.13</ele>
        <time>2016-07-05T07:59:00Z</time>
      </trkpt>
      <trkpt lat="45.57824" lon="6.59797">
        <ele>1798.28</ele>
        <time>2016-07-05T07:59:17Z</time>
      </trkpt>
      <trkpt lat="45.57828" lon="6.59768">
        <ele>1800.76</ele>
        <time>2016-07-05T07:59:22Z</time>
      </trkpt>
      <trkpt lat="45.57852" lon="6.59774">
        <ele>1797.17</ele>
        <time>2016-07-05T08:00:42Z</time>
      </trkpt>
      <trkpt lat="45.57863" lon="6.59798">
        <ele>1809.53</ele>
        <time>2016-07-05T08:01:00Z</time>
      </trkpt>
      <trkpt lat="45.5788" lon="6.59813">
        <ele>1813.13</ele>
        <time>2016-07-05T08:01:59Z</time>
      </trkpt>
      <trkpt lat="45.57892" lon="6.59835">
        <ele>1822.33</ele>
        <time>2016-07-05T08:02:55Z</time>
      </trkpt>
      <trkpt lat="45.579" lon="6.5981">
        <ele>1827.24</ele>
        <time>2016-07-05T08:03:00Z</time>
      </trkpt>
      <trkpt lat="45.57918" lon="6.59806">
        <ele>1834.43</ele>
        <time>2016-07-05T08:03:09Z</time>
      </trkpt>
      <trkpt lat="45.57936" lon="6.59797">
        <ele>1829.49</ele>
        <time>2016-07-05T08:03:26Z</time>
      </trkpt>
      <trkpt lat="45.57954" lon="6.59795">
        <ele>1835.33</ele>
        <time>2016-07-05T08:03:41Z</time>
      </trkpt>
      <trkpt lat="45.57972" lon="6.59789">
        <ele>1837.49</ele>
        <time>2016-07-05T08:03:57Z</time>
      </trkpt>
      <trkpt lat="45.5799" lon="6.59779">
        <ele>1837.38</ele>
        <time>2016-07-05T08:04:16Z</time>
      </trkpt>
      <trkpt lat="45.57989" lon="6.59751">
        <ele>1836.32</ele>
        <time>2016-07-05T08:04:32Z</time>
      </trkpt>
      <trkpt lat="45.57986" lon="6.59721">
        <ele>1842.48</ele>
        <time>2016-07-05T08:04:49Z</time>
      </trkpt>
      <trkpt lat="45.57987" lon="6.59694">
        <ele>1839.73</ele>
        <time>2016-07-05T08:05:06Z</time>
      </trkpt>
      <trkpt lat="45.5799" lon="6.59664">
        <ele>1844.55</ele>
        <time>2016-07-05T08:05:17Z</time>
      </trkpt>
      <trkpt lat="45.58001" lon="6.59642">
        <ele>1845.89</ele>
        <time>2016-07-05T08:05:41Z</time>
      </trkpt>
      <trkpt lat="45.58002" lon="6.59615">
        <ele>1847.05</ele>
        <time>2016-07-05T08:05:58Z</time>
      </trkpt>
      <trkpt lat="45.58015" lon="6.59596">
        <ele>1845.73</ele>
        <time>2016-07-05T08:06:14Z</time>
      </trkpt>
      <trkpt lat="45.58031" lon="6.59582">
        <ele>1851.48</ele>
        <time>2016-07-05T08:06:30Z</time>
      </trkpt>
      <trkpt lat="45.58049" lon="6.59565">
        <ele>1853.52</ele>
        <time>2016-07-05T08:06:44Z</time>
      </trkpt>
      <trkpt lat="45.58065" lon="6.59552">
        <ele>1849.49</ele>
        <time>2016-07-05T08:07:05Z</time>
      </trkpt>
      <trkpt lat="45.58071" lon="6.59526">
        <ele>1849.55</ele>
        <time>2016-07-05T08:07:21Z</time>
      </trkpt>
      <trkpt lat="45.58075" lon="6.59498">
        <ele>1851.57</ele>
        <time>2016-07-05T08:07:43Z</time>
      </trkpt>
      <trkpt lat="45.58072" lon="6.59466">
        <ele>1854.32</ele>
        <time>2016-07-05T08:07:57Z</time>
      </trkpt>
      <trkpt lat="45.58072" lon="6.59439">
        <ele>1854.49</ele>
        <time>2016-07-05T08:08:07Z</time>
      </trkpt>
      <trkpt lat="45.58088" lon="6.59468">
        <ele>1857.9</ele>
        <time>2016-07-05T08:08:11Z</time>
      </trkpt>
      <trkpt lat="45.58083" lon="6.59435">
        <ele>1858.12</ele>
        <time>2016-07-05T08:08:19Z</time>
      </trkpt>
      <trkpt lat="45.58102" lon="6.5943">
        <ele>1862.29</ele>
        <time>2016-07-05T08:08:33Z</time>
      </trkpt>
      <trkpt lat="45.58097" lon="6.59393">
        <ele>1858.78</ele>
        <time>2016-07-05T08:08:39Z</time>
      </trkpt>
      <trkpt lat="45.5811" lon="6.59415">
        <ele>1857.7</ele>
        <time>2016-07-05T08:08:45Z</time>
      </trkpt>
      <trkpt lat="45.58102" lon="6.59391">
        <ele>1857.56</ele>
        <time>2016-07-05T08:08:49Z</time>
      </trkpt>
      <trkpt lat="45.58126" lon="6.59402">
        <ele>1861.49</ele>
        <time>2016-07-05T08:09:09Z</time>
      </trkpt>
      <trkpt lat="45.58119" lon="6.59371">
        <ele>1865.28</ele>
        <time>2016-07-05T08:09:20Z</time>
      </trkpt>
      <trkpt lat="45.58114" lon="6.59345">
        <ele>1866.83</ele>
        <time>2016-07-05T08:09:28Z</time>
      </trkpt>
      <trkpt lat="45.58101" lon="6.59327">
        <ele>1863.54</ele>
        <time>2016-07-05T08:09:45Z</time>
      </trkpt>
      <trkpt lat="45.58087" lon="6.59308">
        <ele>1863.53</ele>
        <time>2016-07-05T08:10:00Z</time>
      </trkpt>
      <trkpt lat="45.58073" lon="6.5933">
        <ele>1866.32</ele>
        <time>2016-07-05T08:10:04Z</time>
      </trkpt>
      <trkpt lat="45.58058" lon="6.59315">
        <ele>1866.72</ele>
        <time>2016-07-05T08:10:22Z</time>
      </trkpt>
      <trkpt lat="45.58041" lon="6.59305">
        <ele>1864.73</ele>
        <time>2016-07-05T08:10:35Z</time>
      </trkpt>
      <trkpt lat="45.58023" lon="6.59315">
        <ele>1874.56</ele>
        <time>2016-07-05T08:10:46Z</time>
      </trkpt>
      <trkpt lat="45.58005" lon="6.59329">
        <ele>1875.35</ele>
        <time>2016-07-05T08:11:06Z</time>
      </trkpt>
      <trkpt lat="45.5799" lon="6.59313">
        <ele>1873.53</ele>
        <time>2016-07-05T08:12:23Z</time>
      </trkpt>
      <trkpt lat="45.57968" lon="6.59315">
        <ele>1875.29</ele>
        <time>2016-07-05T08:12:25Z</time>
      </trkpt>
      <trkpt lat="45.57952" lon="6.59302">
        <ele>1876.67</ele>
        <time>2016-07-05T08:12:42Z</time>
      </trkpt>
      <trkpt lat="45.57935" lon="6.59292">
        <ele>1880.49</ele>
        <time>2016-07-05T08:13:00Z</time>
      </trkpt>
      <trkpt lat="45.57918" lon="6.59297">
        <ele>1884.48</ele>
        <time>2016-07-05T08:13:13Z</time>
      </trkpt>
      <trkpt lat="45.57936" lon="6.59286">
        <ele>1891.25</ele>
        <time>2016-07-05T08:13:48Z</time>
      </trkpt>
      <trkpt lat="45.57954" lon="6.5928">
        <ele>1892.09</ele>
        <time>2016-07-05T08:14:02Z</time>
      </trkpt>
      <trkpt lat="45.58006" lon="6.59258">
        <ele>1908</ele>
        <time>2016-07-05T08:14:51Z</time>
      </trkpt>
      <trkpt lat="45.58025" lon="6.59253">
        <ele>1904.52</ele>
        <time>2016-07-05T08:15:08Z</time>
      </trkpt>
      <trkpt lat="45.58044" lon="6.59244">
        <ele>1902.33</ele>
        <time>2016-07-05T08:15:29Z</time>
      </trkpt>
      <trkpt lat="45.58061" lon="6.59231">
        <ele>1905.34</ele>
        <time>2016-07-05T08:15:47Z</time>
      </trkpt>
      <trkpt lat="45.58078" lon="6.59218">
        <ele>1907.54</ele>
        <time>2016-07-05T08:16:06Z</time>
      </trkpt>
      <trkpt lat="45.58092" lon="6.59201">
        <ele>1910.28</ele>
        <time>2016-07-05T08:16:20Z</time>
      </trkpt>
      <trkpt lat="45.58111" lon="6.5919">
        <ele>1908.33</ele>
        <time>2016-07-05T08:16:38Z</time>
      </trkpt>
      <trkpt lat="45.5813" lon="6.59189">
        <ele>1914.32</ele>
        <time>2016-07-05T08:16:55Z</time>
      </trkpt>
      <trkpt lat="45.58146" lon="6.59176">
        <ele>1915.29</ele>
        <time>2016-07-05T08:17:12Z</time>
      </trkpt>
      <trkpt lat="45.58164" lon="6.59173">
        <ele>1918.32</ele>
        <time>2016-07-05T08:17:27Z</time>
      </trkpt>
      <trkpt lat="45.58181" lon="6.59163">
        <ele>1917.53</ele>
        <time>2016-07-05T08:17:45Z</time>
      </trkpt>
      <trkpt lat="45.58199" lon="6.59157">
        <ele>1921.53</ele>
        <time>2016-07-05T08:18:00Z</time>
      </trkpt>
      <trkpt lat="45.58218" lon="6.59162">
        <ele>1922.69</ele>
        <time>2016-07-05T08:18:17Z</time>
      </trkpt>
      <trkpt lat="45.58234" lon="6.59176">
        <ele>1921.5</ele>
        <time>2016-07-05T08:18:34Z</time>
      </trkpt>
      <trkpt lat="45.58238" lon="6.59201">
        <ele>1923.56</ele>
        <time>2016-07-05T08:18:53Z</time>
      </trkpt>
      <trkpt lat="45.58231" lon="6.59176">
        <ele>1925.53</ele>
        <time>2016-07-05T08:21:02Z</time>
      </trkpt>
      <trkpt lat="45.58232" lon="6.5915">
        <ele>1928.5</ele>
        <time>2016-07-05T08:21:26Z</time>
      </trkpt>
      <trkpt lat="45.58229" lon="6.59125">
        <ele>1927.54</ele>
        <time>2016-07-05T08:22:01Z</time>
      </trkpt>
      <trkpt lat="45.58232" lon="6.59099">
        <ele>1929.72</ele>
        <time>2016-07-05T08:22:33Z</time>
      </trkpt>
      <trkpt lat="45.58243" lon="6.59078">
        <ele>1937.52</ele>
        <time>2016-07-05T08:23:06Z</time>
      </trkpt>
      <trkpt lat="45.58241" lon="6.59052">
        <ele>1952.09</ele>
        <time>2016-07-05T08:24:07Z</time>
      </trkpt>
      <trkpt lat="45.5825" lon="6.59029">
        <ele>1955.54</ele>
        <time>2016-07-05T08:24:37Z</time>
      </trkpt>
      <trkpt lat="45.58258" lon="6.59004">
        <ele>1960.49</ele>
        <time>2016-07-05T08:25:07Z</time>
      </trkpt>
      <trkpt lat="45.58254" lon="6.58976">
        <ele>1967.53</ele>
        <time>2016-07-05T08:26:03Z</time>
      </trkpt>
      <trkpt lat="45.58257" lon="6.5895">
        <ele>1977.28</ele>
        <time>2016-07-05T08:26:34Z</time>
      </trkpt>
      <trkpt lat="45.58268" lon="6.58929">
        <ele>1979.69</ele>
        <time>2016-07-05T08:27:23Z</time>
      </trkpt>
      <trkpt lat="45.58279" lon="6.58907">
        <ele>1989.05</ele>
        <time>2016-07-05T08:27:56Z</time>
      </trkpt>
      <trkpt lat="45.58297" lon="6.58899">
        <ele>1995.33</ele>
        <time>2016-07-05T08:28:20Z</time>
      </trkpt>
      <trkpt lat="45.58306" lon="6.58876">
        <ele>1995.56</ele>
        <time>2016-07-05T08:29:16Z</time>
      </trkpt>
      <trkpt lat="45.58319" lon="6.58855">
        <ele>1982.39</ele>
        <time>2016-07-05T08:30:20Z</time>
      </trkpt>
      <trkpt lat="45.58324" lon="6.58829">
        <ele>2002.54</ele>
        <time>2016-07-05T08:31:10Z</time>
      </trkpt>
      <trkpt lat="45.58342" lon="6.5883">
        <ele>2012.77</ele>
        <time>2016-07-05T08:32:21Z</time>
      </trkpt>
      <trkpt lat="45.58349" lon="6.58854">
        <ele>1999.54</ele>
        <time>2016-07-05T08:33:28Z</time>
      </trkpt>
      <trkpt lat="45.58358" lon="6.58879">
        <ele>1997.62</ele>
        <time>2016-07-05T08:33:53Z</time>
      </trkpt>
      <trkpt lat="45.58369" lon="6.5888">
        <ele>2002.53</ele>
        <time>2016-07-05T08:34:19Z</time>
      </trkpt>
      <trkpt lat="45.58382" lon="6.58861">
        <ele>1996.29</ele>
        <time>2016-07-05T08:34:55Z</time>
      </trkpt>
      <trkpt lat="45.58399" lon="6.58856">
        <ele>1994.54</ele>
        <time>2016-07-05T08:35:32Z</time>
      </trkpt>
      <trkpt lat="45.58418" lon="6.58862">
        <ele>1995.72</ele>
        <time>2016-07-05T08:35:55Z</time>
      </trkpt>
      <trkpt lat="45.58424" lon="6.58887">
        <ele>2003.57</ele>
        <time>2016-07-05T08:36:32Z</time>
      </trkpt>
      <trkpt lat="45.58439" lon="6.58903">
        <ele>2005.35</ele>
        <time>2016-07-05T08:37:39Z</time>
      </trkpt>
      <trkpt lat="45.58456" lon="6.58914">
        <ele>2010.33</ele>
        <time>2016-07-05T08:38:07Z</time>
      </trkpt>
      <trkpt lat="45.58471" lon="6.5893">
        <ele>2013.53</ele>
        <time>2016-07-05T08:39:01Z</time>
      </trkpt>
      <trkpt lat="45.58489" lon="6.58937">
        <ele>2019.54</ele>
        <time>2016-07-05T08:39:40Z</time>
      </trkpt>
      <trkpt lat="45.58508" lon="6.58943">
        <ele>2026.3</ele>
        <time>2016-07-05T08:40:11Z</time>
      </trkpt>
      <trkpt lat="45.58525" lon="6.58952">
        <ele>2044.53</ele>
        <time>2016-07-05T08:41:23Z</time>
      </trkpt>
      <trkpt lat="45.58542" lon="6.5896">
        <ele>2048.36</ele>
        <time>2016-07-05T08:42:13Z</time>
      </trkpt>
      <trkpt lat="45.58558" lon="6.58972">
        <ele>2054.52</ele>
        <time>2016-07-05T08:42:40Z</time>
      </trkpt>
      <trkpt lat="45.58566" lon="6.58997">
        <ele>2055.33</ele>
        <time>2016-07-05T08:43:10Z</time>
      </trkpt>
      <trkpt lat="45.58581" lon="6.59011">
        <ele>2058.72</ele>
        <time>2016-07-05T08:43:38Z</time>
      </trkpt>
      <trkpt lat="45.5859" lon="6.59034">
        <ele>2068.33</ele>
        <time>2016-07-05T08:44:14Z</time>
      </trkpt>
      <trkpt lat="45.58607" lon="6.59022">
        <ele>2075.31</ele>
        <time>2016-07-05T08:44:51Z</time>
      </trkpt>
      <trkpt lat="45.58627" lon="6.5903">
        <ele>2079.36</ele>
        <time>2016-07-05T08:45:30Z</time>
      </trkpt>
      <trkpt lat="45.58639" lon="6.59053">
        <ele>2079.38</ele>
        <time>2016-07-05T08:49:04Z</time>
      </trkpt>
      <trkpt lat="45.58649" lon="6.59076">
        <ele>2085.55</ele>
        <time>2016-07-05T08:49:25Z</time>
      </trkpt>
      <trkpt lat="45.58656" lon="6.591">
        <ele>2089.48</ele>
        <time>2016-07-05T08:49:41Z</time>
      </trkpt>
      <trkpt lat="45.58656" lon="6.59128">
        <ele>2087.68</ele>
        <time>2016-07-05T08:50:28Z</time>
      </trkpt>
      <trkpt lat="45.58661" lon="6.59153">
        <ele>2095.53</ele>
        <time>2016-07-05T08:50:54Z</time>
      </trkpt>
      <trkpt lat="45.58659" lon="6.59179">
        <ele>2097.33</ele>
        <time>2016-07-05T08:51:16Z</time>
      </trkpt>
      <trkpt lat="45.5866" lon="6.59207">
        <ele>2097.57</ele>
        <time>2016-07-05T08:51:32Z</time>
      </trkpt>
      <trkpt lat="45.58657" lon="6.59234">
        <ele>2102.49</ele>
        <time>2016-07-05T08:51:50Z</time>
      </trkpt>
      <trkpt lat="45.58643" lon="6.59251">
        <ele>2103.52</ele>
        <time>2016-07-05T08:52:20Z</time>
      </trkpt>
      <trkpt lat="45.58638" lon="6.59276">
        <ele>2111.53</ele>
        <time>2016-07-05T08:52:45Z</time>
      </trkpt>
      <trkpt lat="45.58642" lon="6.59303">
        <ele>2116.53</ele>
        <time>2016-07-05T08:53:18Z</time>
      </trkpt>
      <trkpt lat="45.5865" lon="6.59328">
        <ele>2118.45</ele>
        <time>2016-07-05T08:53:44Z</time>
      </trkpt>
      <trkpt lat="45.58669" lon="6.59332">
        <ele>2120.33</ele>
        <time>2016-07-05T08:54:03Z</time>
      </trkpt>
      <trkpt lat="45.58681" lon="6.59352">
        <ele>2121.57</ele>
        <time>2016-07-05T08:54:17Z</time>
      </trkpt>
      <trkpt lat="45.5867" lon="6.59377">
        <ele>2130.17</ele>
        <time>2016-07-05T08:54:34Z</time>
      </trkpt>
      <trkpt lat="45.58661" lon="6.59399">
        <ele>2133.53</ele>
        <time>2016-07-05T08:54:55Z</time>
      </trkpt>
      <trkpt lat="45.58653" lon="6.59423">
        <ele>2135.52</ele>
        <time>2016-07-05T08:55:16Z</time>
      </trkpt>
      <trkpt lat="45.58642" lon="6.59446">
        <ele>2134.53</ele>
        <time>2016-07-05T08:55:35Z</time>
      </trkpt>
      <trkpt lat="45.58628" lon="6.59461">
        <ele>2141.3</ele>
        <time>2016-07-05T08:55:50Z</time>
      </trkpt>
      <trkpt lat="45.58641" lon="6.5948">
        <ele>2141.34</ele>
        <time>2016-07-05T08:56:08Z</time>
      </trkpt>
      <trkpt lat="45.58657" lon="6.59494">
        <ele>2146.33</ele>
        <time>2016-07-05T08:56:25Z</time>
      </trkpt>
      <trkpt lat="45.58676" lon="6.59498">
        <ele>2147.89</ele>
        <time>2016-07-05T08:56:46Z</time>
      </trkpt>
      <trkpt lat="45.5869" lon="6.59516">
        <ele>2155.54</ele>
        <time>2016-07-05T08:57:11Z</time>
      </trkpt>
      <trkpt lat="45.58706" lon="6.59529">
        <ele>2156.33</ele>
        <time>2016-07-05T08:57:31Z</time>
      </trkpt>
      <trkpt lat="45.58719" lon="6.59547">
        <ele>2154.52</ele>
        <time>2016-07-05T08:57:51Z</time>
      </trkpt>
      <trkpt lat="45.58725" lon="6.59571">
        <ele>2163.51</ele>
        <time>2016-07-05T08:58:12Z</time>
      </trkpt>
      <trkpt lat="45.58734" lon="6.59594">
        <ele>2165.6</ele>
        <time>2016-07-05T08:58:31Z</time>
      </trkpt>
      <trkpt lat="45.58752" lon="6.596">
        <ele>2165.57</ele>
        <time>2016-07-05T08:58:52Z</time>
      </trkpt>
      <trkpt lat="45.58769" lon="6.59611">
        <ele>2135.84</ele>
        <time>2016-07-05T08:59:13Z</time>
      </trkpt>
      <trkpt lat="45.58784" lon="6.59625">
        <ele>2162.32</ele>
        <time>2016-07-05T08:59:32Z</time>
      </trkpt>
      <trkpt lat="45.58799" lon="6.59641">
        <ele>2168.48</ele>
        <time>2016-07-05T08:59:47Z</time>
      </trkpt>
      <trkpt lat="45.58813" lon="6.59657">
        <ele>2171.12</ele>
        <time>2016-07-05T09:00:08Z</time>
      </trkpt>
      <trkpt lat="45.58829" lon="6.5967">
        <ele>2171.17</ele>
        <time>2016-07-05T09:00:26Z</time>
      </trkpt>
      <trkpt lat="45.58839" lon="6.59692">
        <ele>2177.34</ele>
        <time>2016-07-05T09:00:42Z</time>
      </trkpt>
      <trkpt lat="45.58856" lon="6.59704">
        <ele>2180.53</ele>
        <time>2016-07-05T09:01:03Z</time>
      </trkpt>
      <trkpt lat="45.58871" lon="6.59719">
        <ele>2184.25</ele>
        <time>2016-07-05T09:01:25Z</time>
      </trkpt>
      <trkpt lat="45.58889" lon="6.59726">
        <ele>2186.34</ele>
        <time>2016-07-05T09:01:53Z</time>
      </trkpt>
      <trkpt lat="45.58907" lon="6.59734">
        <ele>2195.13</ele>
        <time>2016-07-05T09:02:30Z</time>
      </trkpt>
      <trkpt lat="45.58925" lon="6.5974">
        <ele>2198.7</ele>
        <time>2016-07-05T09:03:02Z</time>
      </trkpt>
      <trkpt lat="45.58943" lon="6.59746">
        <ele>2201.48</ele>
        <time>2016-07-05T09:03:27Z</time>
      </trkpt>
      <trkpt lat="45.58962" lon="6.59746">
        <ele>2203.57</ele>
        <time>2016-07-05T09:03:47Z</time>
      </trkpt>
      <trkpt lat="45.58981" lon="6.59744">
        <ele>2205.69</ele>
        <time>2016-07-05T09:05:52Z</time>
      </trkpt>
      <trkpt lat="45.58991" lon="6.59721">
        <ele>2209.5</ele>
        <time>2016-07-05T09:06:13Z</time>
      </trkpt>
      <trkpt lat="45.59" lon="6.59696">
        <ele>2221.56</ele>
        <time>2016-07-05T09:06:43Z</time>
      </trkpt>
      <trkpt lat="45.59009" lon="6.59672">
        <ele>2226.54</ele>
        <time>2016-07-05T09:07:08Z</time>
      </trkpt>
      <trkpt lat="45.59025" lon="6.59657">
        <ele>2233.56</ele>
        <time>2016-07-05T09:07:58Z</time>
      </trkpt>
      <trkpt lat="45.59042" lon="6.5967">
        <ele>2240.52</ele>
        <time>2016-07-05T09:08:55Z</time>
      </trkpt>
      <trkpt lat="45.5906" lon="6.59673">
        <ele>2247.13</ele>
        <time>2016-07-05T09:10:09Z</time>
      </trkpt>
      <trkpt lat="45.59079" lon="6.59673">
        <ele>2245.34</ele>
        <time>2016-07-05T09:10:31Z</time>
      </trkpt>
      <trkpt lat="45.59096" lon="6.59666">
        <ele>2248.53</ele>
        <time>2016-07-05T09:11:02Z</time>
      </trkpt>
      <trkpt lat="45.59114" lon="6.5966">
        <ele>2258.53</ele>
        <time>2016-07-05T09:11:30Z</time>
      </trkpt>
      <trkpt lat="45.59132" lon="6.59659">
        <ele>2264.52</ele>
        <time>2016-07-05T09:12:14Z</time>
      </trkpt>
      <trkpt lat="45.59146" lon="6.5964">
        <ele>2267.49</ele>
        <time>2016-07-05T09:12:47Z</time>
      </trkpt>
      <trkpt lat="45.59154" lon="6.59617">
        <ele>2267.29</ele>
        <time>2016-07-05T09:13:05Z</time>
      </trkpt>
      <trkpt lat="45.59169" lon="6.59602">
        <ele>2273.33</ele>
        <time>2016-07-05T09:13:28Z</time>
      </trkpt>
      <trkpt lat="45.59185" lon="6.5959">
        <ele>2276.5</ele>
        <time>2016-07-05T09:14:01Z</time>
      </trkpt>
      <trkpt lat="45.59202" lon="6.59581">
        <ele>2289.49</ele>
        <time>2016-07-05T09:15:32Z</time>
      </trkpt>
      <trkpt lat="45.5922" lon="6.59574">
        <ele>2291.17</ele>
        <time>2016-07-05T09:16:07Z</time>
      </trkpt>
      <trkpt lat="45.59239" lon="6.59574">
        <ele>2300.52</ele>
        <time>2016-07-05T09:17:11Z</time>
      </trkpt>
      <trkpt lat="45.59254" lon="6.59558">
        <ele>2312.48</ele>
        <time>2016-07-05T09:18:52Z</time>
      </trkpt>
      <trkpt lat="45.59265" lon="6.59537">
        <ele>2325.57</ele>
        <time>2016-07-05T09:19:54Z</time>
      </trkpt>
      <trkpt lat="45.59281" lon="6.59525">
        <ele>2337.33</ele>
        <time>2016-07-05T09:21:07Z</time>
      </trkpt>
      <trkpt lat="45.59293" lon="6.59505">
        <ele>2338.53</ele>
        <time>2016-07-05T09:22:16Z</time>
      </trkpt>
      <trkpt lat="45.59311" lon="6.59503">
        <ele>2360.53</ele>
        <time>2016-07-05T09:25:21Z</time>
      </trkpt>
      <trkpt lat="45.5933" lon="6.59501">
        <ele>2367.52</ele>
        <time>2016-07-05T09:26:24Z</time>
      </trkpt>
      <trkpt lat="45.59345" lon="6.59517">
        <ele>2385.48</ele>
        <time>2016-07-05T09:28:11Z</time>
      </trkpt>
      <trkpt lat="45.59361" lon="6.59529">
        <ele>2397.48</ele>
        <time>2016-07-05T09:29:27Z</time>
      </trkpt>
      <trkpt lat="45.59375" lon="6.59545">
        <ele>2397.33</ele>
        <time>2016-07-05T09:29:45Z</time>
      </trkpt>
      <trkpt lat="45.5939" lon="6.5956">
        <ele>2402.33</ele>
        <time>2016-07-05T09:33:31Z</time>
      </trkpt>
      <trkpt lat="45.59406" lon="6.59573">
        <ele>2398.54</ele>
        <time>2016-07-05T09:34:05Z</time>
      </trkpt>
      <trkpt lat="45.59424" lon="6.59578">
        <ele>2401.33</ele>
        <time>2016-07-05T09:34:25Z</time>
      </trkpt>
      <trkpt lat="45.59442" lon="6.59572">
        <ele>2402.49</ele>
        <time>2016-07-05T09:34:45Z</time>
      </trkpt>
      <trkpt lat="45.59454" lon="6.59553">
        <ele>2405.69</ele>
        <time>2016-07-05T09:35:04Z</time>
      </trkpt>
      <trkpt lat="45.59465" lon="6.59532">
        <ele>2407.33</ele>
        <time>2016-07-05T09:35:32Z</time>
      </trkpt>
      <trkpt lat="45.59482" lon="6.59523">
        <ele>2412.49</ele>
        <time>2016-07-05T09:35:57Z</time>
      </trkpt>
      <trkpt lat="45.59501" lon="6.5952">
        <ele>2419.53</ele>
        <time>2016-07-05T09:36:37Z</time>
      </trkpt>
      <trkpt lat="45.59513" lon="6.59539">
        <ele>2429.12</ele>
        <time>2016-07-05T09:37:15Z</time>
      </trkpt>
      <trkpt lat="45.59531" lon="6.59548">
        <ele>2431.5</ele>
        <time>2016-07-05T09:38:06Z</time>
      </trkpt>
      <trkpt lat="45.59545" lon="6.59566">
        <ele>2440.5</ele>
        <time>2016-07-05T09:38:48Z</time>
      </trkpt>
      <trkpt lat="45.5956" lon="6.59579">
        <ele>2455.37</ele>
        <time>2016-07-05T09:40:19Z</time>
      </trkpt>
      <trkpt lat="45.59573" lon="6.596">
        <ele>2466.08</ele>
        <time>2016-07-05T09:41:03Z</time>
      </trkpt>
      <trkpt lat="45.59578" lon="6.59625">
        <ele>2468.53</ele>
        <time>2016-07-05T09:41:55Z</time>
      </trkpt>
      <trkpt lat="45.59589" lon="6.59645">
        <ele>2475.34</ele>
        <time>2016-07-05T09:42:45Z</time>
      </trkpt>
      <trkpt lat="45.59599" lon="6.59668">
        <ele>2478.53</ele>
        <time>2016-07-05T09:43:13Z</time>
      </trkpt>
      <trkpt lat="45.59612" lon="6.59687">
        <ele>2478.52</ele>
        <time>2016-07-05T09:43:58Z</time>
      </trkpt>
      <trkpt lat="45.59629" lon="6.59695">
        <ele>2494.32</ele>
        <time>2016-07-05T09:45:03Z</time>
      </trkpt>
      <trkpt lat="45.59647" lon="6.59703">
        <ele>2499.73</ele>
        <time>2016-07-05T09:45:52Z</time>
      </trkpt>
      <trkpt lat="45.59659" lon="6.59723">
        <ele>2501.73</ele>
        <time>2016-07-05T09:46:17Z</time>
      </trkpt>
      <trkpt lat="45.5967" lon="6.59744">
        <ele>2507.32</ele>
        <time>2016-07-05T09:46:39Z</time>
      </trkpt>
      <trkpt lat="45.59682" lon="6.59764">
        <ele>2514.53</ele>
        <time>2016-07-05T09:47:14Z</time>
      </trkpt>
      <trkpt lat="45.59696" lon="6.59746">
        <ele>2520.34</ele>
        <time>2016-07-05T09:48:18Z</time>
      </trkpt>
      <trkpt lat="45.59707" lon="6.59724">
        <ele>2523.55</ele>
        <time>2016-07-05T09:49:03Z</time>
      </trkpt>
      <trkpt lat="45.59719" lon="6.59705">
        <ele>2539.33</ele>
        <time>2016-07-05T09:50:22Z</time>
      </trkpt>
      <trkpt lat="45.5973" lon="6.59683">
        <ele>2544.53</ele>
        <time>2016-07-05T09:52:03Z</time>
      </trkpt>
      <trkpt lat="45.59745" lon="6.59667">
        <ele>2554.52</ele>
        <time>2016-07-05T09:53:01Z</time>
      </trkpt>
      <trkpt lat="45.59761" lon="6.59652">
        <ele>2561.52</ele>
        <time>2016-07-05T09:55:10Z</time>
      </trkpt>
      <trkpt lat="45.59778" lon="6.59641">
        <ele>2560.37</ele>
        <time>2016-07-05T09:56:40Z</time>
      </trkpt>
      <trkpt lat="45.59795" lon="6.5963">
        <ele>2554.37</ele>
        <time>2016-07-05T09:57:03Z</time>
      </trkpt>
      <trkpt lat="45.59812" lon="6.5962">
        <ele>2553.52</ele>
        <time>2016-07-05T09:58:02Z</time>
      </trkpt>
      <trkpt lat="45.59793" lon="6.59626">
        <ele>2554.46</ele>
        <time>2016-07-05T10:07:12Z</time>
      </trkpt>
      <trkpt lat="45.59777" lon="6.59639">
        <ele>2552.94</ele>
        <time>2016-07-05T10:07:29Z</time>
      </trkpt>
      <trkpt lat="45.59777" lon="6.59646">
        <ele>2553.53</ele>
        <time>2016-07-05T10:09:29Z</time>
      </trkpt>
      <trkpt lat="45.59765" lon="6.59645">
        <ele>2559.53</ele>
        <time>2016-07-05T10:11:27Z</time>
      </trkpt>
      <trkpt lat="45.59666" lon="6.59644">
        <ele>2501.53</ele>
        <time>2016-07-05T10:15:18Z</time>
      </trkpt>
      <trkpt lat="45.5965" lon="6.59629">
        <ele>2510.72</ele>
        <time>2016-07-05T10:15:50Z</time>
      </trkpt>
      <trkpt lat="45.59638" lon="6.5961">
        <ele>2496.53</ele>
        <time>2016-07-05T10:16:38Z</time>
      </trkpt>
      <trkpt lat="45.59621" lon="6.59597">
        <ele>2488.7</ele>
        <time>2016-07-05T10:17:14Z</time>
      </trkpt>
      <trkpt lat="45.59611" lon="6.59576">
        <ele>2481.54</ele>
        <time>2016-07-05T10:18:15Z</time>
      </trkpt>
      <trkpt lat="45.59608" lon="6.5955">
        <ele>2461.62</ele>
        <time>2016-07-05T10:19:21Z</time>
      </trkpt>
      <trkpt lat="45.59592" lon="6.59538">
        <ele>2456.53</ele>
        <time>2016-07-05T10:20:03Z</time>
      </trkpt>
      <trkpt lat="45.59576" lon="6.5952">
        <ele>2441.92</ele>
        <time>2016-07-05T10:21:00Z</time>
      </trkpt>
      <trkpt lat="45.59561" lon="6.59503">
        <ele>2439.49</ele>
        <time>2016-07-05T10:21:45Z</time>
      </trkpt>
      <trkpt lat="45.59544" lon="6.59491">
        <ele>2430.53</ele>
        <time>2016-07-05T10:22:37Z</time>
      </trkpt>
      <trkpt lat="45.59557" lon="6.59469">
        <ele>2424.29</ele>
        <time>2016-07-05T10:23:26Z</time>
      </trkpt>
      <trkpt lat="45.59573" lon="6.59453">
        <ele>2420.78</ele>
        <time>2016-07-05T10:23:59Z</time>
      </trkpt>
      <trkpt lat="45.59591" lon="6.59456">
        <ele>2413.74</ele>
        <time>2016-07-05T10:24:27Z</time>
      </trkpt>
      <trkpt lat="45.59609" lon="6.59454">
        <ele>2413.34</ele>
        <time>2016-07-05T10:24:51Z</time>
      </trkpt>
      <trkpt lat="45.59627" lon="6.59455">
        <ele>2415.33</ele>
        <time>2016-07-05T10:25:10Z</time>
      </trkpt>
      <trkpt lat="45.59646" lon="6.59455">
        <ele>2413.29</ele>
        <time>2016-07-05T10:25:36Z</time>
      </trkpt>
      <trkpt lat="45.59664" lon="6.59449">
        <ele>2410.53</ele>
        <time>2016-07-05T10:25:54Z</time>
      </trkpt>
      <trkpt lat="45.59681" lon="6.59441">
        <ele>2399.52</ele>
        <time>2016-07-05T10:26:21Z</time>
      </trkpt>
      <trkpt lat="45.59693" lon="6.59422">
        <ele>2395.13</ele>
        <time>2016-07-05T10:28:07Z</time>
      </trkpt>
      <trkpt lat="45.59712" lon="6.5942">
        <ele>2393.74</ele>
        <time>2016-07-05T10:28:25Z</time>
      </trkpt>
      <trkpt lat="45.59726" lon="6.59404">
        <ele>2379.53</ele>
        <time>2016-07-05T10:29:19Z</time>
      </trkpt>
      <trkpt lat="45.59732" lon="6.59379">
        <ele>2364.33</ele>
        <time>2016-07-05T10:30:00Z</time>
      </trkpt>
      <trkpt lat="45.5974" lon="6.59356">
        <ele>2364.46</ele>
        <time>2016-07-05T10:30:38Z</time>
      </trkpt>
      <trkpt lat="45.59757" lon="6.59345">
        <ele>2357.35</ele>
        <time>2016-07-05T10:31:05Z</time>
      </trkpt>
      <trkpt lat="45.59755" lon="6.59318">
        <ele>2352.93</ele>
        <time>2016-07-05T10:31:45Z</time>
      </trkpt>
      <trkpt lat="45.59742" lon="6.59297">
        <ele>2349.29</ele>
        <time>2016-07-05T10:32:12Z</time>
      </trkpt>
      <trkpt lat="45.59726" lon="6.59283">
        <ele>2347.33</ele>
        <time>2016-07-05T10:32:50Z</time>
      </trkpt>
      <trkpt lat="45.59716" lon="6.5926">
        <ele>2342.52</ele>
        <time>2016-07-05T10:33:09Z</time>
      </trkpt>
      <trkpt lat="45.59721" lon="6.59235">
        <ele>2344.28</ele>
        <time>2016-07-05T10:33:37Z</time>
      </trkpt>
      <trkpt lat="45.59716" lon="6.5921">
        <ele>2341.68</ele>
        <time>2016-07-05T10:33:55Z</time>
      </trkpt>
      <trkpt lat="45.59724" lon="6.59184">
        <ele>2335.33</ele>
        <time>2016-07-05T10:34:47Z</time>
      </trkpt>
      <trkpt lat="45.59719" lon="6.59159">
        <ele>2335.73</ele>
        <time>2016-07-05T10:35:57Z</time>
      </trkpt>
      <trkpt lat="45.59707" lon="6.59139">
        <ele>2334.54</ele>
        <time>2016-07-05T10:36:17Z</time>
      </trkpt>
      <trkpt lat="45.59689" lon="6.5914">
        <ele>2334.31</ele>
        <time>2016-07-05T10:36:35Z</time>
      </trkpt>
      <trkpt lat="45.59671" lon="6.59132">
        <ele>2326.75</ele>
        <time>2016-07-05T10:37:25Z</time>
      </trkpt>
      <trkpt lat="45.59654" lon="6.59124">
        <ele>2326.54</ele>
        <time>2016-07-05T10:37:44Z</time>
      </trkpt>
      <trkpt lat="45.59636" lon="6.59121">
        <ele>2321.61</ele>
        <time>2016-07-05T10:38:34Z</time>
      </trkpt>
      <trkpt lat="45.59618" lon="6.59122">
        <ele>2316.52</ele>
        <time>2016-07-05T10:39:14Z</time>
      </trkpt>
      <trkpt lat="45.59603" lon="6.59106">
        <ele>2309.53</ele>
        <time>2016-07-05T10:39:49Z</time>
      </trkpt>
      <trkpt lat="45.59587" lon="6.59095">
        <ele>2308.49</ele>
        <time>2016-07-05T10:40:38Z</time>
      </trkpt>
      <trkpt lat="45.59573" lon="6.59077">
        <ele>2302.45</ele>
        <time>2016-07-05T10:41:43Z</time>
      </trkpt>
      <trkpt lat="45.59554" lon="6.59077">
        <ele>2300.52</ele>
        <time>2016-07-05T10:42:09Z</time>
      </trkpt>
      <trkpt lat="45.59538" lon="6.59063">
        <ele>2295.37</ele>
        <time>2016-07-05T10:42:28Z</time>
      </trkpt>
      <trkpt lat="45.59524" lon="6.59047">
        <ele>2294.49</ele>
        <time>2016-07-05T10:42:49Z</time>
      </trkpt>
      <trkpt lat="45.59507" lon="6.59054">
        <ele>2286.69</ele>
        <time>2016-07-05T10:43:33Z</time>
      </trkpt>
      <trkpt lat="45.5949" lon="6.59042">
        <ele>2281.33</ele>
        <time>2016-07-05T10:43:58Z</time>
      </trkpt>
      <trkpt lat="45.59473" lon="6.59054">
        <ele>2273.58</ele>
        <time>2016-07-05T10:44:33Z</time>
      </trkpt>
      <trkpt lat="45.59457" lon="6.59068">
        <ele>2263.73</ele>
        <time>2016-07-05T10:45:14Z</time>
      </trkpt>
      <trkpt lat="45.59439" lon="6.59064">
        <ele>2266.48</ele>
        <time>2016-07-05T10:45:56Z</time>
      </trkpt>
      <trkpt lat="45.5942" lon="6.59061">
        <ele>2259.35</ele>
        <time>2016-07-05T10:46:33Z</time>
      </trkpt>
      <trkpt lat="45.59403" lon="6.59052">
        <ele>2251.53</ele>
        <time>2016-07-05T10:47:01Z</time>
      </trkpt>
      <trkpt lat="45.59385" lon="6.59045">
        <ele>2243.85</ele>
        <time>2016-07-05T10:48:42Z</time>
      </trkpt>
      <trkpt lat="45.5937" lon="6.5903">
        <ele>2239.97</ele>
        <time>2016-07-05T10:48:59Z</time>
      </trkpt>
      <trkpt lat="45.59362" lon="6.59005">
        <ele>2235.55</ele>
        <time>2016-07-05T10:49:20Z</time>
      </trkpt>
      <trkpt lat="45.59346" lon="6.5899">
        <ele>2225.98</ele>
        <time>2016-07-05T10:49:43Z</time>
      </trkpt>
      <trkpt lat="45.59358" lon="6.58969">
        <ele>2223.33</ele>
        <time>2016-07-05T10:50:10Z</time>
      </trkpt>
      <trkpt lat="45.59355" lon="6.58944">
        <ele>2222.55</ele>
        <time>2016-07-05T10:50:30Z</time>
      </trkpt>
      <trkpt lat="45.59344" lon="6.58923">
        <ele>2224.34</ele>
        <time>2016-07-05T10:50:46Z</time>
      </trkpt>
      <trkpt lat="45.59333" lon="6.58902">
        <ele>2212.56</ele>
        <time>2016-07-05T10:51:07Z</time>
      </trkpt>
      <trkpt lat="45.59315" lon="6.58899">
        <ele>2210.49</ele>
        <time>2016-07-05T10:51:21Z</time>
      </trkpt>
      <trkpt lat="45.59299" lon="6.58885">
        <ele>2207.53</ele>
        <time>2016-07-05T10:51:34Z</time>
      </trkpt>
      <trkpt lat="45.59281" lon="6.58884">
        <ele>2205.38</ele>
        <time>2016-07-05T10:51:52Z</time>
      </trkpt>
      <trkpt lat="45.59263" lon="6.58882">
        <ele>2207.14</ele>
        <time>2016-07-05T10:52:09Z</time>
      </trkpt>
      <trkpt lat="45.59243" lon="6.58886">
        <ele>2201.52</ele>
        <time>2016-07-05T10:52:26Z</time>
      </trkpt>
      <trkpt lat="45.59224" lon="6.58893">
        <ele>2196.92</ele>
        <time>2016-07-05T10:52:51Z</time>
      </trkpt>
      <trkpt lat="45.59205" lon="6.58889">
        <ele>2195.09</ele>
        <time>2016-07-05T10:53:07Z</time>
      </trkpt>
      <trkpt lat="45.59187" lon="6.589">
        <ele>2205.69</ele>
        <time>2016-07-05T10:53:23Z</time>
      </trkpt>
      <trkpt lat="45.59168" lon="6.589">
        <ele>2199.34</ele>
        <time>2016-07-05T10:53:35Z</time>
      </trkpt>
      <trkpt lat="45.59147" lon="6.58904">
        <ele>2190.75</ele>
        <time>2016-07-05T10:53:57Z</time>
      </trkpt>
      <trkpt lat="45.5913" lon="6.58908">
        <ele>2188.54</ele>
        <time>2016-07-05T10:54:08Z</time>
      </trkpt>
      <trkpt lat="45.59112" lon="6.58902">
        <ele>2190.52</ele>
        <time>2016-07-05T10:54:27Z</time>
      </trkpt>
      <trkpt lat="45.59093" lon="6.58898">
        <ele>2189.89</ele>
        <time>2016-07-05T10:54:39Z</time>
      </trkpt>
      <trkpt lat="45.59074" lon="6.58892">
        <ele>2191.34</ele>
        <time>2016-07-05T10:54:55Z</time>
      </trkpt>
      <trkpt lat="45.59056" lon="6.58883">
        <ele>2193.76</ele>
        <time>2016-07-05T10:55:09Z</time>
      </trkpt>
      <trkpt lat="45.59037" lon="6.58876">
        <ele>2192.49</ele>
        <time>2016-07-05T10:55:24Z</time>
      </trkpt>
      <trkpt lat="45.59021" lon="6.58864">
        <ele>2190.42</ele>
        <time>2016-07-05T10:55:46Z</time>
      </trkpt>
      <trkpt lat="45.59008" lon="6.58866">
        <ele>2179.53</ele>
        <time>2016-07-05T10:56:27Z</time>
      </trkpt>
      <trkpt lat="45.58989" lon="6.58865">
        <ele>2183.53</ele>
        <time>2016-07-05T10:57:10Z</time>
      </trkpt>
      <trkpt lat="45.58972" lon="6.58855">
        <ele>2182.57</ele>
        <time>2016-07-05T10:57:32Z</time>
      </trkpt>
      <trkpt lat="45.58955" lon="6.58843">
        <ele>2181.56</ele>
        <time>2016-07-05T10:58:01Z</time>
      </trkpt>
      <trkpt lat="45.58936" lon="6.58838">
        <ele>2180.46</ele>
        <time>2016-07-05T10:58:20Z</time>
      </trkpt>
      <trkpt lat="45.58919" lon="6.58829">
        <ele>2175.52</ele>
        <time>2016-07-05T10:59:04Z</time>
      </trkpt>
      <trkpt lat="45.58899" lon="6.58827">
        <ele>2177.33</ele>
        <time>2016-07-05T10:59:31Z</time>
      </trkpt>
      <trkpt lat="45.58883" lon="6.58817">
        <ele>2174.54</ele>
        <time>2016-07-05T10:59:49Z</time>
      </trkpt>
      <trkpt lat="45.58865" lon="6.58811">
        <ele>2167.68</ele>
        <time>2016-07-05T11:00:34Z</time>
      </trkpt>
      <trkpt lat="45.58865" lon="6.58838">
        <ele>2160.39</ele>
        <time>2016-07-05T11:00:55Z</time>
      </trkpt>
      <trkpt lat="45.58851" lon="6.58854">
        <ele>2162.34</ele>
        <time>2016-07-05T11:01:08Z</time>
      </trkpt>
      <trkpt lat="45.58844" lon="6.58878">
        <ele>2163.56</ele>
        <time>2016-07-05T11:01:28Z</time>
      </trkpt>
      <trkpt lat="45.58835" lon="6.58901">
        <ele>2154.57</ele>
        <time>2016-07-05T11:01:52Z</time>
      </trkpt>
      <trkpt lat="45.58812" lon="6.58903">
        <ele>2144.93</ele>
        <time>2016-07-05T11:02:50Z</time>
      </trkpt>
      <trkpt lat="45.58791" lon="6.58903">
        <ele>2152.06</ele>
        <time>2016-07-05T11:03:52Z</time>
      </trkpt>
      <trkpt lat="45.58776" lon="6.58886">
        <ele>2149.2</ele>
        <time>2016-07-05T11:04:14Z</time>
      </trkpt>
      <trkpt lat="45.58759" lon="6.58896">
        <ele>2135.3</ele>
        <time>2016-07-05T11:05:22Z</time>
      </trkpt>
      <trkpt lat="45.58741" lon="6.58904">
        <ele>2127.77</ele>
        <time>2016-07-05T11:06:04Z</time>
      </trkpt>
      <trkpt lat="45.58726" lon="6.58884">
        <ele>2125.68</ele>
        <time>2016-07-05T11:06:20Z</time>
      </trkpt>
      <trkpt lat="45.58728" lon="6.58858">
        <ele>2125.32</ele>
        <time>2016-07-05T11:06:44Z</time>
      </trkpt>
      <trkpt lat="45.58712" lon="6.58869">
        <ele>2114.49</ele>
        <time>2016-07-05T11:08:33Z</time>
      </trkpt>
      <trkpt lat="45.58694" lon="6.58884">
        <ele>2105.49</ele>
        <time>2016-07-05T11:09:28Z</time>
      </trkpt>
      <trkpt lat="45.58677" lon="6.58877">
        <ele>2100.53</ele>
        <time>2016-07-05T11:10:02Z</time>
      </trkpt>
      <trkpt lat="45.58659" lon="6.58868">
        <ele>2100.32</ele>
        <time>2016-07-05T11:10:36Z</time>
      </trkpt>
      <trkpt lat="45.58638" lon="6.58871">
        <ele>2091.52</ele>
        <time>2016-07-05T11:11:34Z</time>
      </trkpt>
      <trkpt lat="45.58623" lon="6.58892">
        <ele>2071.14</ele>
        <time>2016-07-05T11:12:36Z</time>
      </trkpt>
      <trkpt lat="45.58604" lon="6.589">
        <ele>2073.53</ele>
        <time>2016-07-05T11:12:49Z</time>
      </trkpt>
      <trkpt lat="45.58586" lon="6.58897">
        <ele>2076.34</ele>
        <time>2016-07-05T11:13:11Z</time>
      </trkpt>
      <trkpt lat="45.58569" lon="6.58909">
        <ele>2064.57</ele>
        <time>2016-07-05T11:13:36Z</time>
      </trkpt>
      <trkpt lat="45.58555" lon="6.58928">
        <ele>2054.46</ele>
        <time>2016-07-05T11:13:56Z</time>
      </trkpt>
      <trkpt lat="45.58538" lon="6.58935">
        <ele>2042.74</ele>
        <time>2016-07-05T11:14:42Z</time>
      </trkpt>
      <trkpt lat="45.58519" lon="6.58933">
        <ele>2046.17</ele>
        <time>2016-07-05T11:15:04Z</time>
      </trkpt>
      <trkpt lat="45.58505" lon="6.58917">
        <ele>2043.52</ele>
        <time>2016-07-05T11:15:30Z</time>
      </trkpt>
      <trkpt lat="45.58489" lon="6.58931">
        <ele>2042.57</ele>
        <time>2016-07-05T11:15:49Z</time>
      </trkpt>
      <trkpt lat="45.58473" lon="6.58943">
        <ele>2029.96</ele>
        <time>2016-07-05T11:16:15Z</time>
      </trkpt>
      <trkpt lat="45.58457" lon="6.58957">
        <ele>2024.3</ele>
        <time>2016-07-05T11:16:42Z</time>
      </trkpt>
      <trkpt lat="45.58445" lon="6.58936">
        <ele>2030.73</ele>
        <time>2016-07-05T11:17:06Z</time>
      </trkpt>
      <trkpt lat="45.58428" lon="6.58923">
        <ele>2023.28</ele>
        <time>2016-07-05T11:17:43Z</time>
      </trkpt>
      <trkpt lat="45.58413" lon="6.58906">
        <ele>2019.55</ele>
        <time>2016-07-05T11:18:07Z</time>
      </trkpt>
      <trkpt lat="45.58396" lon="6.58896">
        <ele>2015.58</ele>
        <time>2016-07-05T11:18:32Z</time>
      </trkpt>
      <trkpt lat="45.58377" lon="6.58896">
        <ele>2010.49</ele>
        <time>2016-07-05T11:18:59Z</time>
      </trkpt>
      <trkpt lat="45.58361" lon="6.58911">
        <ele>1999.54</ele>
        <time>2016-07-05T11:19:36Z</time>
      </trkpt>
      <trkpt lat="45.58342" lon="6.5892">
        <ele>1997.28</ele>
        <time>2016-07-05T11:20:49Z</time>
      </trkpt>
      <trkpt lat="45.58323" lon="6.58924">
        <ele>1998.52</ele>
        <time>2016-07-05T11:21:08Z</time>
      </trkpt>
      <trkpt lat="45.58314" lon="6.58948">
        <ele>1991.33</ele>
        <time>2016-07-05T11:21:41Z</time>
      </trkpt>
      <trkpt lat="45.58319" lon="6.58974">
        <ele>1989.53</ele>
        <time>2016-07-05T11:22:02Z</time>
      </trkpt>
      <trkpt lat="45.58318" lon="6.59">
        <ele>1981.56</ele>
        <time>2016-07-05T11:22:28Z</time>
      </trkpt>
      <trkpt lat="45.58311" lon="6.5903">
        <ele>1976.94</ele>
        <time>2016-07-05T11:22:58Z</time>
      </trkpt>
      <trkpt lat="45.58313" lon="6.59056">
        <ele>1970.73</ele>
        <time>2016-07-05T11:23:15Z</time>
      </trkpt>
      <trkpt lat="45.58307" lon="6.5908">
        <ele>1966.57</ele>
        <time>2016-07-05T11:23:37Z</time>
      </trkpt>
      <trkpt lat="45.583" lon="6.59104">
        <ele>1962.73</ele>
        <time>2016-07-05T11:23:57Z</time>
      </trkpt>
      <trkpt lat="45.58297" lon="6.5913">
        <ele>1956.34</ele>
        <time>2016-07-05T11:24:18Z</time>
      </trkpt>
      <trkpt lat="45.5829" lon="6.59154">
        <ele>1954.54</ele>
        <time>2016-07-05T11:24:46Z</time>
      </trkpt>
      <trkpt lat="45.58284" lon="6.5918">
        <ele>1944.55</ele>
        <time>2016-07-05T11:25:04Z</time>
      </trkpt>
      <trkpt lat="45.58275" lon="6.59202">
        <ele>1944.41</ele>
        <time>2016-07-05T11:25:23Z</time>
      </trkpt>
      <trkpt lat="45.5827" lon="6.59229">
        <ele>1941.48</ele>
        <time>2016-07-05T11:25:48Z</time>
      </trkpt>
      <trkpt lat="45.58261" lon="6.59252">
        <ele>1940.36</ele>
        <time>2016-07-05T11:26:03Z</time>
      </trkpt>
      <trkpt lat="45.58253" lon="6.59276">
        <ele>1937.37</ele>
        <time>2016-07-05T11:26:19Z</time>
      </trkpt>
      <trkpt lat="45.58244" lon="6.593">
        <ele>1933.7</ele>
        <time>2016-07-05T11:26:37Z</time>
      </trkpt>
      <trkpt lat="45.58236" lon="6.59324">
        <ele>1931.51</ele>
        <time>2016-07-05T11:26:53Z</time>
      </trkpt>
      <trkpt lat="45.58227" lon="6.59348">
        <ele>1930.5</ele>
        <time>2016-07-05T11:27:09Z</time>
      </trkpt>
      <trkpt lat="45.5822" lon="6.59374">
        <ele>1930.29</ele>
        <time>2016-07-05T11:27:25Z</time>
      </trkpt>
      <trkpt lat="45.58215" lon="6.594">
        <ele>1926.3</ele>
        <time>2016-07-05T11:27:57Z</time>
      </trkpt>
      <trkpt lat="45.58202" lon="6.59418">
        <ele>1926.54</ele>
        <time>2016-07-05T11:28:22Z</time>
      </trkpt>
      <trkpt lat="45.58194" lon="6.59442">
        <ele>1924.54</ele>
        <time>2016-07-05T11:28:37Z</time>
      </trkpt>
      <trkpt lat="45.58192" lon="6.59469">
        <ele>1918.68</ele>
        <time>2016-07-05T11:28:56Z</time>
      </trkpt>
      <trkpt lat="45.58185" lon="6.59493">
        <ele>1917.53</ele>
        <time>2016-07-05T11:29:11Z</time>
      </trkpt>
      <trkpt lat="45.58178" lon="6.59517">
        <ele>1914.54</ele>
        <time>2016-07-05T11:29:33Z</time>
      </trkpt>
      <trkpt lat="45.58165" lon="6.59535">
        <ele>1913.78</ele>
        <time>2016-07-05T11:29:50Z</time>
      </trkpt>
      <trkpt lat="45.58151" lon="6.59554">
        <ele>1909.48</ele>
        <time>2016-07-05T11:30:07Z</time>
      </trkpt>
      <trkpt lat="45.58146" lon="6.59529">
        <ele>1906.36</ele>
        <time>2016-07-05T11:30:22Z</time>
      </trkpt>
      <trkpt lat="45.58132" lon="6.59545">
        <ele>1897.49</ele>
        <time>2016-07-05T11:30:51Z</time>
      </trkpt>
      <trkpt lat="45.58117" lon="6.59561">
        <ele>1894.57</ele>
        <time>2016-07-05T11:31:12Z</time>
      </trkpt>
      <trkpt lat="45.58102" lon="6.59577">
        <ele>1891.53</ele>
        <time>2016-07-05T11:31:29Z</time>
      </trkpt>
      <trkpt lat="45.58085" lon="6.59588">
        <ele>1887.54</ele>
        <time>2016-07-05T11:31:46Z</time>
      </trkpt>
      <trkpt lat="45.58068" lon="6.59599">
        <ele>1889.36</ele>
        <time>2016-07-05T11:32:03Z</time>
      </trkpt>
      <trkpt lat="45.58052" lon="6.59613">
        <ele>1885.53</ele>
        <time>2016-07-05T11:32:24Z</time>
      </trkpt>
      <trkpt lat="45.58034" lon="6.59609">
        <ele>1862.37</ele>
        <time>2016-07-05T11:33:18Z</time>
      </trkpt>
      <trkpt lat="45.58017" lon="6.59621">
        <ele>1858.53</ele>
        <time>2016-07-05T11:33:37Z</time>
      </trkpt>
      <trkpt lat="45.57999" lon="6.59628">
        <ele>1858.53</ele>
        <time>2016-07-05T11:34:00Z</time>
      </trkpt>
      <trkpt lat="45.5798" lon="6.5963">
        <ele>1846.36</ele>
        <time>2016-07-05T11:34:45Z</time>
      </trkpt>
      <trkpt lat="45.57962" lon="6.5964">
        <ele>1839.89</ele>
        <time>2016-07-05T11:35:08Z</time>
      </trkpt>
      <trkpt lat="45.57944" lon="6.59645">
        <ele>1842.86</ele>
        <time>2016-07-05T11:35:29Z</time>
      </trkpt>
      <trkpt lat="45.57925" lon="6.5965">
        <ele>1839.58</ele>
        <time>2016-07-05T11:35:43Z</time>
      </trkpt>
      <trkpt lat="45.57906" lon="6.59653">
        <ele>1829.38</ele>
        <time>2016-07-05T11:36:07Z</time>
      </trkpt>
      <trkpt lat="45.57888" lon="6.59644">
        <ele>1824.17</ele>
        <time>2016-07-05T11:36:27Z</time>
      </trkpt>
      <trkpt lat="45.57884" lon="6.59669">
        <ele>1819.74</ele>
        <time>2016-07-05T11:36:47Z</time>
      </trkpt>
      <trkpt lat="45.57871" lon="6.59688">
        <ele>1816.75</ele>
        <time>2016-07-05T11:37:06Z</time>
      </trkpt>
      <trkpt lat="45.57853" lon="6.597">
        <ele>1814.73</ele>
        <time>2016-07-05T11:37:20Z</time>
      </trkpt>
      <trkpt lat="45.57854" lon="6.59727">
        <ele>1808.93</ele>
        <time>2016-07-05T11:37:37Z</time>
      </trkpt>
      <trkpt lat="45.57857" lon="6.59752">
        <ele>1808.33</ele>
        <time>2016-07-05T11:37:50Z</time>
      </trkpt>
      <trkpt lat="45.5784" lon="6.59757">
        <ele>1801.52</ele>
        <time>2016-07-05T11:38:37Z</time>
      </trkpt>
      <trkpt lat="45.57823" lon="6.59773">
        <ele>1793.89</ele>
        <time>2016-07-05T11:40:23Z</time>
      </trkpt>
      <trkpt lat="45.57802" lon="6.59779">
        <ele>1794.45</ele>
        <time>2016-07-05T11:40:56Z</time>
      </trkpt>
      <trkpt lat="45.57792" lon="6.59785">
        <ele>1794.53</ele>
        <time>2016-07-05T11:41:20Z</time>
      </trkpt>
      <trkpt lat="45.57774" lon="6.5978">
        <ele>1789.49</ele>
        <time>2016-07-05T11:42:08Z</time>
      </trkpt>
      <trkpt lat="45.57758" lon="6.59764">
        <ele>1781.33</ele>
        <time>2016-07-05T11:42:27Z</time>
      </trkpt>
      <trkpt lat="45.5774" lon="6.59766">
        <ele>1780.55</ele>
        <time>2016-07-05T11:43:27Z</time>
      </trkpt>
      <trkpt lat="45.57721" lon="6.59773">
        <ele>1775.57</ele>
        <time>2016-07-05T11:43:40Z</time>
      </trkpt>
      <trkpt lat="45.57702" lon="6.59774">
        <ele>1769.26</ele>
        <time>2016-07-05T11:43:56Z</time>
      </trkpt>
      <trkpt lat="45.57683" lon="6.59782">
        <ele>1760.73</ele>
        <time>2016-07-05T11:44:20Z</time>
      </trkpt>
      <trkpt lat="45.57667" lon="6.59796">
        <ele>1759.94</ele>
        <time>2016-07-05T11:44:35Z</time>
      </trkpt>
      <trkpt lat="45.57649" lon="6.59796">
        <ele>1755.52</ele>
        <time>2016-07-05T11:45:11Z</time>
      </trkpt>
      <trkpt lat="45.57632" lon="6.59804">
        <ele>1751.34</ele>
        <time>2016-07-05T11:45:30Z</time>
      </trkpt>
      <trkpt lat="45.57613" lon="6.59803">
        <ele>1745.49</ele>
        <time>2016-07-05T11:45:51Z</time>
      </trkpt>
      <trkpt lat="45.5762" lon="6.59828">
        <ele>1745.77</ele>
        <time>2016-07-05T11:46:09Z</time>
      </trkpt>
      <trkpt lat="45.57618" lon="6.59856">
        <ele>1745.38</ele>
        <time>2016-07-05T11:46:24Z</time>
      </trkpt>
      <trkpt lat="45.57604" lon="6.59874">
        <ele>1741.93</ele>
        <time>2016-07-05T11:46:38Z</time>
      </trkpt>
      <trkpt lat="45.57601" lon="6.599">
        <ele>1737.34</ele>
        <time>2016-07-05T11:46:55Z</time>
      </trkpt>
      <trkpt lat="45.57587" lon="6.59919">
        <ele>1737.09</ele>
        <time>2016-07-05T11:47:09Z</time>
      </trkpt>
      <trkpt lat="45.57574" lon="6.59938">
        <ele>1733.5</ele>
        <time>2016-07-05T11:47:22Z</time>
      </trkpt>
      <trkpt lat="45.57559" lon="6.59953">
        <ele>1723.58</ele>
        <time>2016-07-05T11:47:38Z</time>
      </trkpt>
      <trkpt lat="45.57556" lon="6.5998">
        <ele>1721.05</ele>
        <time>2016-07-05T11:47:56Z</time>
      </trkpt>
      <trkpt lat="45.57545" lon="6.6">
        <ele>1716.93</ele>
        <time>2016-07-05T11:48:10Z</time>
      </trkpt>
      <trkpt lat="45.57531" lon="6.6002">
        <ele>1703.34</ele>
        <time>2016-07-05T11:48:31Z</time>
      </trkpt>
      <trkpt lat="45.57514" lon="6.60031">
        <ele>1696.37</ele>
        <time>2016-07-05T11:48:51Z</time>
      </trkpt>
      <trkpt lat="45.57497" lon="6.60042">
        <ele>1698.48</ele>
        <time>2016-07-05T11:49:06Z</time>
      </trkpt>
      <trkpt lat="45.57479" lon="6.60039">
        <ele>1706.68</ele>
        <time>2016-07-05T11:49:19Z</time>
      </trkpt>
    </trkseg>
  </trk>
</gpx>